Time;durP1;ratioP1;P1;durP2;ratioP2;P2;SDS_P1;SDS_P2;PMS_P1;PMS_P2;Temp;Humidity;BMP_temperature;BMP_pressure;BME280_temperature;BME280_humidity;BME280_pressure;Samples;Min_cycle;Max_cycle;Signal;HPM_P1;HPM_P2
2024/02/26 00:01:12;;;;;;;;;;;6.50;99.90;;;;;;21240046;27;19911;-77
2024/02/26 00:11:12;;;;;;;;;;;6.40;99.90;;;;;;21278809;27;19922;-77
2024/02/26 00:21:13;;;;;;;;;;;6.20;99.90;;;;;;21348127;27;19915;-77
2024/02/26 00:31:13;;;;;;;;;;;6.10;99.90;;;;;;21342683;27;19915;-77
2024/02/26 00:41:14;;;;;;;;;;;6.00;99.90;;;;;;21342122;27;19936;-77
2024/02/26 00:51:15;;;;;;;;;;;6.10;99.90;;;;;;21350205;27;19962;-77
2024/02/26 01:01:16;;;;;;;;;;;5.90;99.90;;;;;;21351075;27;19911;-78
2024/02/26 01:11:16;;;;;;;;;;;5.90;99.90;;;;;;21352343;27;20301;-77
2024/02/26 01:21:17;;;;;;;;;;;6.00;99.90;;;;;;21343823;27;19994;-77
2024/02/26 01:31:17;;;;;;;;;;;5.70;99.90;;;;;;21341385;27;19957;-76
2024/02/26 01:41:18;;;;;;;;;;;5.70;99.90;;;;;;21341764;27;19911;-77
2024/02/26 01:51:19;;;;;;;;;;;5.80;99.90;;;;;;21341233;27;19921;-77
2024/02/26 02:01:22;;;;;;;;;;;5.90;99.90;;;;;;21348391;27;19957;-79
2024/02/26 02:11:23;;;;;;;;;;;5.90;99.90;;;;;;21357008;27;19940;-76
2024/02/26 02:21:24;;;;;;;;;;;5.70;99.90;;;;;;21346359;27;19915;-78
2024/02/26 02:31:24;;;;;;;;;;;5.70;99.90;;;;;;21344975;27;20397;-77
2024/02/26 02:41:27;;;;;;;;;;;5.50;99.90;;;;;;21334475;27;19918;-77
2024/02/26 02:51:27;;;;;;;;;;;5.30;99.90;;;;;;21329150;27;19915;-77
2024/02/26 03:01:28;;;;;;;;;;;5.20;99.90;;;;;;21347966;27;19911;-77
2024/02/26 03:11:29;;;;;;;;;;;5.10;99.90;;;;;;21341605;27;19915;-77
2024/02/26 03:21:29;;;;;;;;;;;5.00;99.90;;;;;;21345219;27;19918;-78
2024/02/26 03:31:30;;;;;;;;;;;5.10;99.90;;;;;;21338056;27;19915;-78
2024/02/26 03:41:31;;;;;;;;;;;5.30;99.90;;;;;;21353405;27;19927;-78
2024/02/26 03:51:32;;;;;;;;;;;5.20;99.90;;;;;;21353202;27;19922;-77
2024/02/26 04:01:33;;;;;;;;;;;5.30;99.90;;;;;;21354441;27;19911;-76
2024/02/26 04:11:34;;;;;;;;;;;5.30;99.90;;;;;;21352605;27;19966;-77
2024/02/26 04:21:35;;;;;;;;;;;5.10;99.90;;;;;;21351416;27;19919;-78
2024/02/26 04:31:37;;;;;;;;;;;5.20;99.90;;;;;;21354024;27;19915;-77
2024/02/26 04:41:37;;;;;;;;;;;5.30;99.90;;;;;;21340747;27;19911;-77
2024/02/26 04:51:38;;;;;;;;;;;5.30;99.90;;;;;;21343465;27;19954;-77
2024/02/26 05:01:39;;;;;;;;;;;5.10;99.90;;;;;;21354997;27;19915;-77
2024/02/26 05:11:40;;;;;;;;;;;5.00;99.90;;;;;;21355347;27;19991;-78
2024/02/26 05:21:42;;;;;;;;;;;5.10;99.90;;;;;;21356435;27;20002;-78
2024/02/26 05:31:43;;;;;;;;;;;4.90;99.90;;;;;;21359797;27;19915;-78
2024/02/26 05:41:43;;;;;;;;;;;4.90;99.90;;;;;;21333965;27;19982;-77
2024/02/26 05:51:44;;;;;;;;;;;4.90;99.90;;;;;;21330445;27;19950;-77
2024/02/26 06:01:45;;;;;;;;;;;5.00;99.90;;;;;;21299603;27;19931;-78
2024/02/26 06:11:45;;;;;;;;;;;5.20;99.90;;;;;;21343573;27;19971;-78
2024/02/26 06:21:46;;;;;;;;;;;5.20;99.90;;;;;;21311346;27;19943;-79
2024/02/26 06:31:48;;;;;;;;;;;5.20;99.90;;;;;;21264370;27;19920;-77
2024/02/26 06:41:48;;;;;;;;;;;5.00;99.90;;;;;;21275126;27;19949;-78
2024/02/26 06:51:49;;;;;;;;;;;5.20;99.90;;;;;;21338697;27;19915;-78
2024/02/26 07:01:50;;;;;;;;;;;5.20;99.90;;;;;;21347508;27;19975;-79
2024/02/26 07:11:50;;;;;;;;;;;5.10;99.90;;;;;;21346858;27;19940;-78
2024/02/26 07:21:51;;;;;;;;;;;5.10;99.90;;;;;;21350698;27;19918;-78
2024/02/26 07:31:52;;;;;;;;;;;5.20;99.90;;;;;;21349768;27;20288;-78
2024/02/26 07:41:52;;;;;;;;;;;5.40;99.90;;;;;;21362253;27;20015;-78
2024/02/26 07:51:53;;;;;;;;;;;5.70;99.90;;;;;;21365506;27;19919;-79
2024/02/26 08:01:54;;;;;;;;;;;5.90;99.90;;;;;;21375483;27;19922;-79
2024/02/26 08:11:55;;;;;;;;;;;6.00;99.90;;;;;;21378476;27;19919;-80
2024/02/26 08:21:55;;;;;;;;;;;6.30;99.90;;;;;;21362591;27;19911;-80
2024/02/26 08:31:56;;;;;;;;;;;7.00;99.90;;;;;;21373608;27;19921;-79
2024/02/26 08:41:57;;;;;;;;;;;8.40;99.90;;;;;;21369391;27;19937;-79
2024/02/26 08:51:57;;;;;;;;;;;8.70;99.90;;;;;;21366118;27;20027;-79
2024/02/26 09:01:58;;;;;;;;;;;8.10;99.90;;;;;;21347545;27;19967;-77
2024/02/26 09:11:59;;;;;;;;;;;7.60;99.90;;;;;;21308501;27;19916;-76
2024/02/26 09:21:59;;;;;;;;;;;8.00;99.90;;;;;;21290737;27;19915;-77
2024/02/26 09:32:00;;;;;;;;;;;8.10;99.90;;;;;;21296238;27;19922;-77
2024/02/26 09:42:04;;;;;;;;;;;8.00;99.90;;;;;;21277318;27;19912;-77
2024/02/26 09:52:05;;;;;;;;;;;7.90;99.90;;;;;;21284277;27;19978;-77
2024/02/26 10:02:08;;;;;;;;;;;8.20;99.90;;;;;;21296612;27;19922;-79
2024/02/26 10:12:10;;;;;;;;;;;8.40;99.90;;;;;;21347990;27;19915;-80
2024/02/26 10:22:11;;;;;;;;;;;8.40;99.90;;;;;;21365080;27;19914;-80
2024/02/26 10:32:13;;;;;;;;;;;8.70;99.90;;;;;;21357903;27;19969;-78
2024/02/26 10:42:15;;;;;;;;;;;9.40;99.90;;;;;;21277466;27;19911;-78
2024/02/26 10:52:18;;;;;;;;;;;9.20;99.90;;;;;;21282115;27;19922;-78
2024/02/26 11:02:20;;;;;;;;;;;9.40;99.90;;;;;;21278979;27;19957;-78
2024/02/26 11:12:22;;;;;;;;;;;9.60;99.90;;;;;;21292570;27;19915;-78
2024/02/26 11:22:26;;;;;;;;;;;9.70;99.90;;;;;;21308376;27;19917;-78
2024/02/26 11:32:27;;;;;;;;;;;9.90;99.90;;;;;;21303989;27;19915;-78
2024/02/26 11:42:31;;;;;;;;;;;10.30;99.90;;;;;;21289372;27;20469;-78
2024/02/26 11:52:31;;;;;;;;;;;10.80;99.90;;;;;;21300646;27;19923;-78
2024/02/26 12:02:41;;;;;;;;;;;11.40;99.90;;;;;;21296557;27;20369;-78
2024/02/26 12:12:42;;;;;;;;;;;11.60;99.90;;;;;;21297324;27;19915;-78
2024/02/26 12:22:49;;;;;;;;;;;12.70;99.90;;;;;;21288653;27;19919;-76
2024/02/26 12:32:50;;;;;;;;;;;13.20;99.90;;;;;;21282041;27;19998;-77
2024/02/26 12:42:53;;;;;;;;;;;12.40;99.90;;;;;;21265213;27;19934;-77
2024/02/26 12:52:54;;;;;;;;;;;12.80;99.90;;;;;;21250897;27;19915;-77
2024/02/26 13:02:55;;;;;;;;;;;13.60;99.90;;;;;;21256150;27;19962;-78
2024/02/26 13:12:56;;;;;;;;;;;13.80;99.90;;;;;;21267179;27;19915;-77
2024/02/26 13:23:01;;;;;;;;;;;14.10;99.90;;;;;;21252292;27;20297;-77
2024/02/26 13:33:09;;;;;;;;;;;14.40;99.90;;;;;;21274044;27;19954;-78
2024/02/26 13:43:10;;;;;;;;;;;13.10;99.90;;;;;;21302208;27;19912;-76
2024/02/26 13:53:11;;;;;;;;;;;12.70;99.90;;;;;;21282976;27;20350;-77
2024/02/26 14:03:12;;;;;;;;;;;12.60;99.90;;;;;;21299822;27;19955;-77
2024/02/26 14:13:13;;;;;;;;;;;12.80;99.90;;;;;;21241599;27;20063;-77
2024/02/26 14:23:14;;;;;;;;;;;13.20;99.90;;;;;;21226056;27;19957;-77
2024/02/26 14:33:14;;;;;;;;;;;12.60;99.90;;;;;;21226062;27;19960;-77
2024/02/26 14:43:15;;;;;;;;;;;12.50;99.90;;;;;;21225080;27;19919;-77
2024/02/26 14:53:16;;;;;;;;;;;12.50;99.90;;;;;;21255259;27;20378;-78
2024/02/26 15:03:17;;;;;;;;;;;12.60;99.90;;;;;;21280923;27;19915;-78
2024/02/26 15:13:17;;;;;;;;;;;12.50;99.90;;;;;;21239268;28;19915;-77
2024/02/26 15:23:18;;;;;;;;;;;12.50;99.90;;;;;;21265090;27;19954;-81
2024/02/26 15:33:19;;;;;;;;;;;12.50;99.90;;;;;;21272527;27;19990;-79
2024/02/26 15:43:21;;;;;;;;;;;12.20;99.90;;;;;;21266609;27;19918;-80
2024/02/26 15:53:21;;;;;;;;;;;12.30;99.90;;;;;;21265952;27;19996;-79
2024/02/26 16:03:22;;;;;;;;;;;11.80;99.90;;;;;;21226424;27;19916;-79
2024/02/26 16:13:23;;;;;;;;;;;11.70;99.90;;;;;;21340181;27;20393;-80
2024/02/26 16:23:24;;;;;;;;;;;11.20;99.90;;;;;;21349691;27;19964;-81
2024/02/26 16:33:25;;;;;;;;;;;11.00;99.90;;;;;;21356221;27;19915;-79
2024/02/26 16:43:26;;;;;;;;;;;10.80;99.90;;;;;;21357185;27;19911;-80
2024/02/26 16:53:27;;;;;;;;;;;10.50;99.90;;;;;;21348843;27;19922;-80
2024/02/26 17:03:27;;;;;;;;;;;10.10;99.90;;;;;;21365563;27;19946;-82
2024/02/26 17:13:28;;;;;;;;;;;9.60;99.90;;;;;;21359227;27;19919;-80
2024/02/26 17:23:32;;;;;;;;;;;9.40;99.90;;;;;;21341412;27;19919;-79
2024/02/26 17:33:33;;;;;;;;;;;9.10;99.90;;;;;;21356700;27;19950;-79
2024/02/26 17:43:33;;;;;;;;;;;8.90;99.90;;;;;;21325302;27;19911;-79
2024/02/26 17:53:34;;;;;;;;;;;8.90;99.90;;;;;;21334930;27;19922;-78
2024/02/26 18:03:35;;;;;;;;;;;9.00;99.90;;;;;;21334369;27;19983;-79
2024/02/26 18:13:39;;;;;;;;;;;9.20;99.90;;;;;;21355316;27;19922;-81
2024/02/26 18:23:40;;;;;;;;;;;9.10;99.90;;;;;;21350037;27;19933;-80
2024/02/26 18:33:43;;;;;;;;;;;8.90;99.90;;;;;;21275669;27;20207;-79
2024/02/26 18:43:44;;;;;;;;;;;8.70;99.90;;;;;;21317781;27;19911;-79
2024/02/26 18:53:45;;;;;;;;;;;8.60;99.90;;;;;;21283678;27;19919;-80
2024/02/26 19:03:46;;;;;;;;;;;7.90;99.90;;;;;;21285219;27;19922;-80
2024/02/26 19:13:46;;;;;;;;;;;8.10;99.90;;;;;;21336629;27;19915;-77
2024/02/26 19:23:47;;;;;;;;;;;7.90;99.90;;;;;;21344043;27;19918;-78
2024/02/26 19:33:47;;;;;;;;;;;7.10;99.90;;;;;;21350145;27;20350;-81
2024/02/26 19:43:48;;;;;;;;;;;7.40;99.90;;;;;;21363276;27;19919;-79
2024/02/26 19:53:49;;;;;;;;;;;7.60;99.90;;;;;;21362537;27;19951;-79
2024/02/26 20:03:50;;;;;;;;;;;7.20;99.90;;;;;;21360438;27;19918;-79
2024/02/26 20:13:50;;;;;;;;;;;7.10;99.90;;;;;;21370197;27;19915;-78
2024/02/26 20:23:51;;;;;;;;;;;6.60;99.90;;;;;;21350322;27;20339;-81
2024/02/26 20:33:52;;;;;;;;;;;5.90;99.90;;;;;;21365129;27;20005;-79
2024/02/26 20:43:52;;;;;;;;;;;6.50;99.90;;;;;;21363943;27;19942;-78
2024/02/26 20:53:53;;;;;;;;;;;6.20;99.90;;;;;;21358674;27;20378;-78
2024/02/26 21:03:54;;;;;;;;;;;5.80;99.90;;;;;;21360184;27;19964;-81
2024/02/26 21:13:55;;;;;;;;;;;6.00;99.90;;;;;;21284380;27;19922;-82
2024/02/26 21:23:56;;;;;;;;;;;6.10;99.90;;;;;;21258264;27;19937;-77
2024/02/26 21:33:59;;;;;;;;;;;6.10;99.90;;;;;;21265437;27;19916;-78
2024/02/26 21:44:06;;;;;;;;;;;5.90;99.90;;;;;;21278450;27;19912;-78
2024/02/26 21:54:07;;;;;;;;;;;6.00;99.90;;;;;;21274661;27;19966;-77
2024/02/26 22:04:07;;;;;;;;;;;6.00;99.90;;;;;;21266323;27;19926;-80
2024/02/26 22:14:08;;;;;;;;;;;6.00;99.90;;;;;;21206487;27;19915;-80
2024/02/26 22:24:09;;;;;;;;;;;5.90;99.90;;;;;;21251584;27;20534;-79
2024/02/26 22:34:10;;;;;;;;;;;5.70;99.90;;;;;;21251897;27;19926;-80
2024/02/26 22:44:11;;;;;;;;;;;5.60;99.90;;;;;;21236669;27;19998;-78
2024/02/26 22:54:11;;;;;;;;;;;5.40;99.90;;;;;;21244438;27;19937;-81
2024/02/26 23:04:12;;;;;;;;;;;5.30;99.90;;;;;;21263022;27;20439;-81
2024/02/26 23:14:13;;;;;;;;;;;5.20;99.90;;;;;;21351290;27;19967;-81
2024/02/26 23:24:14;;;;;;;;;;;5.10;99.90;;;;;;21365930;27;20301;-81
2024/02/26 23:34:15;;;;;;;;;;;5.10;99.90;;;;;;21358850;27;19922;-81
2024/02/26 23:44:15;;;;;;;;;;;5.20;99.90;;;;;;21346966;27;19915;-81
2024/02/26 23:54:16;;;;;;;;;;;5.10;99.90;;;;;;21367833;27;19936;-81
